Time;durP1;ratioP1;P1;durP2;ratioP2;P2;SDS_P1;SDS_P2;PMS_P1;PMS_P2;Temp;Humidity;BMP_temperature;BMP_pressure;BME280_temperature;BME280_humidity;BME280_pressure;Samples;Min_cycle;Max_cycle;Signal;HPM_P1;HPM_P2
2022/04/13 00:00:58;;;;;;;0.00;0.00;;;;;;;11.98;69.48;100228.44;7356085;19;20022;-65
2022/04/13 00:03:24;;;;;;;0.00;0.00;;;;;;;12.05;69.20;100236.00;7361845;19;20021;-65
2022/04/13 00:05:49;;;;;;;0.00;0.00;;;;;;;12.04;69.37;100234.28;7360350;19;20103;-65
2022/04/13 00:08:15;;;;;;;0.10;0.10;;;;;;;12.03;69.58;100242.19;7365390;19;20014;-66
2022/04/13 00:10:40;;;;;;;0.03;0.03;;;;;;;11.96;69.16;100233.69;7361798;19;20006;-66
2022/04/13 00:13:06;;;;;;;0.00;0.00;;;;;;;12.01;69.41;100250.09;7363820;19;20006;-65
2022/04/13 00:15:32;;;;;;;0.00;0.00;;;;;;;12.01;69.28;100246.63;7361221;19;20074;-66
2022/04/13 00:17:57;;;;;;;0.00;0.00;;;;;;;11.89;69.19;100229.59;7363420;19;20013;-66
2022/04/13 00:20:23;;;;;;;0.00;0.00;;;;;;;12.00;69.51;100245.78;7361793;19;20753;-66
2022/04/13 00:22:48;;;;;;;0.10;0.10;;;;;;;11.92;69.68;100232.13;7361298;19;20412;-65
2022/04/13 00:25:14;;;;;;;0.08;0.08;;;;;;;11.97;69.42;100235.44;7359580;19;20093;-66
2022/04/13 00:27:39;;;;;;;0.08;0.08;;;;;;;11.98;69.14;100242.38;7363098;19;20077;-66
2022/04/13 00:30:05;;;;;;;0.10;0.10;;;;;;;11.96;69.14;100246.78;7354066;19;20014;-65
2022/04/13 00:32:33;;;;;;;0.00;0.00;;;;;;;11.92;69.15;100243.44;7363644;19;20011;-66
2022/04/13 00:35:02;;;;;;;0.00;0.00;;;;;;;11.88;69.13;100243.59;7354012;19;20009;-66
2022/04/13 00:37:28;;;;;;;0.00;0.00;;;;;;;11.87;68.78;100247.97;7362786;19;20017;-65
2022/04/13 00:39:53;;;;;;;0.00;0.00;;;;;;;11.82;69.06;100243.81;7359226;19;20383;-64
2022/04/13 00:42:19;;;;;;;0.00;0.00;;;;;;;11.79;68.63;100249.97;7360883;19;20031;-65
2022/04/13 00:44:44;;;;;;;0.00;0.00;;;;;;;11.75;68.12;100257.97;7359422;19;20010;-65
2022/04/13 00:47:10;;;;;;;0.10;0.10;;;;;;;11.69;68.32;100254.66;7362874;19;20011;-66
2022/04/13 00:49:36;;;;;;;0.10;0.10;;;;;;;11.62;68.27;100255.78;7357442;19;20020;-65
2022/04/13 00:52:04;;;;;;;0.00;0.00;;;;;;;11.56;69.00;100268.22;7350458;19;20011;-65
2022/04/13 00:54:31;;;;;;;0.00;0.00;;;;;;;11.47;68.97;100256.31;7351959;19;20565;-64
2022/04/13 00:56:58;;;;;;;0.00;0.00;;;;;;;11.42;68.78;100261.69;7362780;19;20462;-66
2022/04/13 00:59:25;;;;;;;0.00;0.00;;;;;;;11.34;69.30;100257.59;7358018;19;20804;-65
2022/04/13 01:01:53;;;;;;;0.00;0.00;;;;;;;11.32;69.12;100260.28;7362024;19;20014;-66
2022/04/13 01:04:19;;;;;;;0.00;0.00;;;;;;;11.28;69.33;100260.44;7361453;19;20019;-65
2022/04/13 01:06:44;;;;;;;0.00;0.00;;;;;;;11.22;69.34;100268.47;7358347;19;20487;-65
2022/04/13 01:09:12;;;;;;;0.00;0.00;;;;;;;11.18;69.50;100265.94;7361034;19;20014;-65
2022/04/13 01:11:38;;;;;;;0.00;0.00;;;;;;;11.14;69.18;100261.72;7360531;19;20543;-66
2022/04/13 01:14:04;;;;;;;0.10;0.10;;;;;;;11.09;69.28;100262.78;7363291;19;20725;-66
2022/04/13 01:16:29;;;;;;;0.00;0.00;;;;;;;11.06;69.77;100265.50;7360767;19;20043;-66
2022/04/13 01:18:55;;;;;;;0.00;0.00;;;;;;;11.03;69.62;100263.81;7360970;19;20030;-64
2022/04/13 01:21:41;;;;;;;0.00;0.00;;;;;;;11.03;68.39;100269.06;7362525;19;20031;-64
2022/04/13 01:24:07;;;;;;;0.00;0.00;;;;;;;10.97;69.71;100271.88;7358360;19;20006;-65
2022/04/13 01:26:32;;;;;;;0.00;0.00;;;;;;;10.88;69.85;100264.31;7358429;19;20044;-65
2022/04/13 01:28:58;;;;;;;0.00;0.00;;;;;;;10.93;69.75;100278.06;7361491;19;20006;-64
2022/04/13 01:31:24;;;;;;;0.00;0.00;;;;;;;10.93;70.05;100272.84;7363863;19;20007;-64
2022/04/13 01:33:49;;;;;;;0.00;0.00;;;;;;;10.91;70.15;100275.53;7354173;19;20422;-65
2022/04/13 01:36:16;;;;;;;0.00;0.00;;;;;;;10.92;70.35;100281.59;7362496;19;20605;-64
2022/04/13 01:38:41;;;;;;;0.00;0.00;;;;;;;10.89;70.45;100271.22;7360042;19;20048;-66
2022/04/13 01:41:06;;;;;;;0.00;0.00;;;;;;;10.94;70.71;100279.78;7360857;19;20018;-64
2022/04/13 01:43:32;;;;;;;0.00;0.00;;;;;;;10.95;70.11;100281.53;7361483;19;20105;-66
2022/04/13 01:45:57;;;;;;;0.00;0.00;;;;;;;10.99;70.03;100279.63;7354761;19;20021;-66
2022/04/13 01:48:23;;;;;;;0.00;0.00;;;;;;;10.97;70.23;100279.69;7351492;19;20762;-65
2022/04/13 01:50:49;;;;;;;0.00;0.00;;;;;;;10.98;70.61;100280.56;7361682;19;20102;-66
2022/04/13 01:53:15;;;;;;;0.00;0.00;;;;;;;10.94;70.23;100266.72;7354621;19;20023;-64
2022/04/13 01:55:41;;;;;;;0.10;0.10;;;;;;;11.04;70.17;100290.81;7358228;19;20014;-66
2022/04/13 01:58:06;;;;;;;0.03;0.03;;;;;;;10.99;70.57;100275.28;7359956;19;20023;-65
2022/04/13 02:00:32;;;;;;;0.00;0.00;;;;;;;11.06;70.53;100289.88;7305264;19;20026;-64
2022/04/13 02:02:57;;;;;;;0.00;0.00;;;;;;;11.09;70.32;100283.69;7290801;19;20963;-66
2022/04/13 02:05:23;;;;;;;0.00;0.00;;;;;;;11.08;70.47;100285.44;7317883;19;20010;-65
2022/04/13 02:07:48;;;;;;;0.10;0.10;;;;;;;11.13;70.31;100293.13;7306649;19;20026;-66
2022/04/13 02:10:14;;;;;;;0.10;0.10;;;;;;;11.12;70.36;100284.44;7323574;19;20262;-64
2022/04/13 02:12:41;;;;;;;0.00;0.00;;;;;;;11.15;70.76;100288.69;7346104;19;20017;-64
2022/04/13 02:15:07;;;;;;;0.00;0.00;;;;;;;11.16;70.46;100293.91;7341442;19;20027;-63
2022/04/13 02:17:33;;;;;;;0.00;0.00;;;;;;;11.19;70.67;100287.72;7351848;19;20006;-65
2022/04/13 02:19:58;;;;;;;0.10;0.10;;;;;;;11.21;70.74;100292.91;7349178;19;20010;-66
2022/04/13 02:22:24;;;;;;;0.00;0.00;;;;;;;11.21;70.54;100292.91;7355816;19;20010;-62
2022/04/13 02:24:49;;;;;;;0.10;0.10;;;;;;;11.24;70.62;100295.41;7343738;19;20042;-64
2022/04/13 02:27:15;;;;;;;0.00;0.00;;;;;;;11.25;70.65;100299.72;7355149;19;20792;-64
2022/04/13 02:29:44;;;;;;;0.00;0.00;;;;;;;11.27;70.42;100305.78;7354138;19;20013;-64
2022/04/13 02:32:10;;;;;;;0.00;0.00;;;;;;;11.28;70.45;100304.88;7350230;19;20033;-65
2022/04/13 02:34:35;;;;;;;0.00;0.00;;;;;;;11.31;70.53;100310.00;7353185;19;20797;-64
2022/04/13 02:37:00;;;;;;;0.03;0.03;;;;;;;11.33;70.78;100308.19;7350361;19;20007;-65
2022/04/13 02:39:26;;;;;;;0.00;0.00;;;;;;;11.33;70.67;100301.19;7355672;19;20021;-64
2022/04/13 02:41:52;;;;;;;0.10;0.10;;;;;;;11.35;70.57;100314.22;7354264;19;20014;-65
2022/04/13 02:44:17;;;;;;;0.00;0.00;;;;;;;11.36;70.77;100314.19;7351909;19;20021;-64
2022/04/13 02:46:44;;;;;;;0.10;0.10;;;;;;;11.37;70.25;100309.81;7353520;19;20010;-66
2022/04/13 02:49:11;;;;;;;0.00;0.00;;;;;;;11.38;70.33;100316.75;7353292;19;20082;-66
2022/04/13 02:51:37;;;;;;;0.00;0.00;;;;;;;11.39;70.44;100315.81;7348245;19;20014;-65
2022/04/13 02:54:02;;;;;;;0.00;0.00;;;;;;;11.39;70.49;100313.22;7356061;19;22798;-65
2022/04/13 02:56:28;;;;;;;0.00;0.00;;;;;;;11.41;70.44;100317.50;7354165;19;20015;-65
2022/04/13 02:58:53;;;;;;;0.00;0.00;;;;;;;11.42;70.54;100320.97;7350037;19;20006;-64
2022/04/13 03:01:18;;;;;;;0.10;0.10;;;;;;;11.34;70.60;100312.50;7355319;19;20599;-65
2022/04/13 03:03:44;;;;;;;0.10;0.10;;;;;;;11.39;70.62;100313.22;7350742;19;20027;-64
2022/04/13 03:06:09;;;;;;;0.10;0.10;;;;;;;11.45;70.48;100323.47;7347473;19;20351;-65
2022/04/13 03:08:35;;;;;;;0.10;0.10;;;;;;;11.43;70.38;100326.13;7361091;19;20021;-64
2022/04/13 03:11:01;;;;;;;0.00;0.00;;;;;;;11.44;70.08;100329.59;7356311;19;20090;-66
2022/04/13 03:13:26;;;;;;;0.00;0.00;;;;;;;11.41;70.26;100327.09;7360441;19;20697;-66
2022/04/13 03:15:51;;;;;;;0.10;0.10;;;;;;;11.43;70.07;100339.22;7365571;19;20034;-66
2022/04/13 03:18:17;;;;;;;0.00;0.00;;;;;;;11.40;70.76;100341.94;7355910;19;20070;-66
2022/04/13 03:20:42;;;;;;;0.00;0.00;;;;;;;11.28;70.25;100315.31;7364944;19;20010;-66
2022/04/13 03:23:08;;;;;;;0.00;0.00;;;;;;;11.37;70.10;100330.72;7362197;19;20465;-64
2022/04/13 03:25:33;;;;;;;0.10;0.10;;;;;;;11.37;70.57;100346.41;7365921;19;20045;-64
2022/04/13 03:27:59;;;;;;;0.03;0.03;;;;;;;11.36;70.73;100339.47;7365466;19;20018;-66
2022/04/13 03:30:24;;;;;;;0.00;0.00;;;;;;;11.36;70.64;100344.69;7365767;19;20350;-63
2022/04/13 03:32:51;;;;;;;0.00;0.00;;;;;;;11.34;70.48;100346.50;7366573;19;20538;-65
2022/04/13 03:35:17;;;;;;;0.00;0.00;;;;;;;11.16;70.27;100312.19;7363553;19;20057;-65
2022/04/13 03:37:42;;;;;;;0.00;0.00;;;;;;;11.32;70.30;100343.09;7366351;19;20406;-66
2022/04/13 03:40:09;;;;;;;0.10;0.10;;;;;;;11.20;70.24;100336.47;7365858;19;21377;-64
2022/04/13 03:42:37;;;;;;;0.05;0.05;;;;;;;11.31;70.63;100357.06;7365299;19;20030;-63
2022/04/13 03:45:04;;;;;;;0.00;0.00;;;;;;;11.29;70.29;100359.69;7362008;19;23398;-65
2022/04/13 03:47:29;;;;;;;0.00;0.00;;;;;;;11.28;70.51;100363.22;7366035;19;20030;-65
2022/04/13 03:49:55;;;;;;;0.00;0.00;;;;;;;11.27;70.35;100361.53;7364564;19;20769;-65
2022/04/13 03:52:20;;;;;;;0.00;0.00;;;;;;;11.26;70.38;100364.19;7362754;19;20062;-64
2022/04/13 03:54:46;;;;;;;0.10;0.10;;;;;;;11.01;70.43;100328.34;7364365;19;20040;-65
2022/04/13 03:57:12;;;;;;;0.00;0.00;;;;;;;11.24;70.32;100365.97;7363691;19;20030;-63
2022/04/13 03:59:37;;;;;;;0.00;0.00;;;;;;;11.23;70.80;100374.72;7360230;19;20427;-64
2022/04/13 04:02:03;;;;;;;0.00;0.00;;;;;;;11.16;70.89;100369.69;7363593;19;20025;-66
2022/04/13 04:04:28;;;;;;;0.08;0.08;;;;;;;11.21;70.72;100373.94;7362284;19;20014;-65
2022/04/13 04:06:54;;;;;;;0.00;0.00;;;;;;;11.20;70.76;100380.03;7367185;19;20088;-65
2022/04/13 04:09:19;;;;;;;0.10;0.10;;;;;;;11.20;70.69;100385.25;7359460;19;20040;-66
2022/04/13 04:11:44;;;;;;;0.00;0.00;;;;;;;11.16;70.55;100374.91;7365912;19;20010;-64
2022/04/13 04:14:10;;;;;;;0.00;0.00;;;;;;;11.18;70.79;100383.56;7362911;19;20022;-65
2022/04/13 04:16:35;;;;;;;0.10;0.10;;;;;;;11.18;70.70;100380.94;7361844;19;20010;-65
2022/04/13 04:19:00;;;;;;;0.00;0.00;;;;;;;11.16;70.57;100380.16;7361669;19;20036;-66
2022/04/13 04:21:26;;;;;;;0.00;0.00;;;;;;;11.08;70.49;100376.03;7359564;19;20469;-66
2022/04/13 04:23:51;;;;;;;0.00;0.00;;;;;;;11.04;70.53;100375.28;7340550;19;20085;-65
2022/04/13 04:26:17;;;;;;;0.00;0.00;;;;;;;11.13;70.87;100390.69;7361081;19;20104;-64
2022/04/13 04:28:42;;;;;;;0.00;0.00;;;;;;;11.12;70.47;100388.13;7359394;19;20618;-66
2022/04/13 04:31:08;;;;;;;0.00;0.00;;;;;;;11.12;70.81;100399.44;7361071;19;20613;-66
2022/04/13 04:33:33;;;;;;;0.00;0.00;;;;;;;11.10;70.84;100392.53;7361029;19;20013;-66
2022/04/13 04:35:59;;;;;;;0.00;0.00;;;;;;;11.11;70.76;100402.94;7356520;19;20493;-66
2022/04/13 04:38:26;;;;;;;0.03;0.03;;;;;;;11.12;70.51;100414.25;7362655;19;20022;-66
2022/04/13 04:40:52;;;;;;;0.00;0.00;;;;;;;11.09;70.72;100412.56;7350459;19;20034;-65
2022/04/13 04:43:17;;;;;;;0.00;0.00;;;;;;;11.09;70.49;100420.41;7358218;19;20011;-64
2022/04/13 04:45:43;;;;;;;0.00;0.00;;;;;;;10.97;70.65;100406.88;7358293;19;20018;-66
2022/04/13 04:48:08;;;;;;;0.00;0.00;;;;;;;11.05;70.88;100417.94;7364562;19;20039;-64
2022/04/13 04:50:34;;;;;;;0.00;0.00;;;;;;;11.08;70.95;100425.69;7363052;19;20021;-66
2022/04/13 04:53:00;;;;;;;0.08;0.08;;;;;;;11.06;70.68;100425.75;7360353;19;20011;-65
2022/04/13 04:55:25;;;;;;;0.00;0.00;;;;;;;11.05;70.79;100429.25;7359784;19;20619;-64
2022/04/13 04:57:51;;;;;;;0.00;0.00;;;;;;;11.04;70.80;100432.75;7358633;19;20878;-67
2022/04/13 05:00:19;;;;;;;0.00;0.00;;;;;;;11.04;70.76;100432.75;7360000;19;20391;-66
2022/04/13 05:02:52;;;;;;;0.00;0.00;;;;;;;11.05;70.49;100434.50;7363913;19;20617;-64
2022/04/13 05:05:19;;;;;;;0.00;0.00;;;;;;;11.00;70.82;100444.22;7357911;19;20027;-66
2022/04/13 05:07:45;;;;;;;0.00;0.00;;;;;;;11.00;70.68;100446.84;7355532;19;20014;-62
2022/04/13 05:10:12;;;;;;;0.00;0.00;;;;;;;10.88;70.55;100426.25;7363228;19;20037;-64
2022/04/13 05:12:49;;;;;;;0.00;0.00;;;;;;;10.94;70.16;100451.34;7360970;19;20044;-64
2022/04/13 05:15:15;;;;;;;0.00;0.00;;;;;;;10.99;71.25;100466.00;7362029;19;20006;-66
2022/04/13 05:17:41;;;;;;;0.00;0.00;;;;;;;11.01;70.89;100472.06;7359101;19;20612;-65
2022/04/13 05:20:08;;;;;;;0.00;0.00;;;;;;;11.01;70.89;100471.19;7357572;19;21317;-61
2022/04/13 05:22:34;;;;;;;0.00;0.00;;;;;;;11.02;70.85;100476.38;7359047;19;20565;-61
2022/04/13 05:25:04;;;;;;;0.00;0.00;;;;;;;11.06;71.18;100477.16;7361570;19;20025;-66
2022/04/13 05:27:30;;;;;;;0.00;0.00;;;;;;;11.06;71.19;100482.38;7359487;19;20017;-64
2022/04/13 05:29:55;;;;;;;0.00;0.00;;;;;;;10.98;71.11;100456.44;7361456;19;20019;-67
2022/04/13 05:32:20;;;;;;;0.00;0.00;;;;;;;11.08;71.36;100484.03;7353650;19;20010;-66
2022/04/13 05:34:46;;;;;;;0.00;0.00;;;;;;;11.08;70.80;100486.66;7357186;19;20044;-64
2022/04/13 05:37:11;;;;;;;0.00;0.00;;;;;;;11.06;71.02;100482.38;7361445;19;20019;-65
2022/04/13 05:39:38;;;;;;;0.10;0.10;;;;;;;10.98;70.93;100468.66;7357444;19;20056;-64
2022/04/13 05:42:04;;;;;;;0.00;0.00;;;;;;;11.02;70.77;100475.53;7355914;19;20737;-66
2022/04/13 05:44:29;;;;;;;0.00;0.00;;;;;;;11.11;70.87;100499.63;7361603;19;20015;-66
2022/04/13 05:46:54;;;;;;;0.00;0.00;;;;;;;11.12;71.12;100498.72;7352795;19;20414;-64
2022/04/13 05:49:20;;;;;;;0.00;0.00;;;;;;;11.00;70.92;100483.41;7361933;19;20020;-66
2022/04/13 05:51:45;;;;;;;0.00;0.00;;;;;;;11.10;70.64;100499.66;7350731;19;20017;-64
2022/04/13 05:54:11;;;;;;;0.10;0.10;;;;;;;11.15;70.41;100509.13;7360862;19;20105;-65
2022/04/13 05:56:36;;;;;;;0.10;0.10;;;;;;;11.17;71.18;100509.91;7358099;19;20017;-64
2022/04/13 05:59:02;;;;;;;0.00;0.00;;;;;;;11.18;70.22;100514.22;7359588;19;20022;-64
2022/04/13 06:01:27;;;;;;;0.00;0.00;;;;;;;11.21;70.80;100517.69;7360916;19;20019;-64
2022/04/13 06:03:53;;;;;;;0.00;0.00;;;;;;;11.23;70.81;100523.72;7361729;19;20034;-65
2022/04/13 06:06:18;;;;;;;0.00;0.00;;;;;;;11.11;71.06;100502.25;7359997;19;20048;-65
2022/04/13 06:08:44;;;;;;;0.00;0.00;;;;;;;11.27;71.21;100527.97;7362180;19;20608;-67
2022/04/13 06:11:09;;;;;;;0.00;0.00;;;;;;;11.29;71.20;100526.16;7355196;19;20460;-66
2022/04/13 06:13:34;;;;;;;0.03;0.03;;;;;;;11.21;71.31;100507.22;7355903;19;20010;-64
2022/04/13 06:16:00;;;;;;;0.00;0.00;;;;;;;11.23;71.17;100515.88;7359366;19;20039;-64
2022/04/13 06:18:25;;;;;;;0.10;0.10;;;;;;;11.37;70.95;100540.72;7356674;19;20011;-64
2022/04/13 06:20:51;;;;;;;0.00;0.00;;;;;;;11.40;71.23;100537.16;7360130;19;20027;-67
2022/04/13 06:23:18;;;;;;;0.00;0.00;;;;;;;11.42;71.02;100545.81;7351265;19;20040;-66
2022/04/13 06:25:43;;;;;;;0.00;0.00;;;;;;;11.46;71.43;100551.81;7355114;19;20474;-65
2022/04/13 06:28:09;;;;;;;0.00;0.00;;;;;;;11.49;71.02;100555.19;7356256;19;20017;-65
2022/04/13 06:30:34;;;;;;;0.00;0.00;;;;;;;11.45;71.44;100543.09;7359560;19;20022;-66
2022/04/13 06:33:00;;;;;;;0.10;0.10;;;;;;;11.52;71.00;100557.72;7358091;19;20014;-67
2022/04/13 06:35:26;;;;;;;0.10;0.10;;;;;;;11.51;70.75;100563.88;7357901;19;20022;-63
2022/04/13 06:37:51;;;;;;;0.00;0.00;;;;;;;11.51;70.75;100566.47;7351059;19;20376;-66
2022/04/13 06:40:17;;;;;;;0.00;0.00;;;;;;;11.55;70.44;100575.94;7350442;19;20027;-64
2022/04/13 06:42:43;;;;;;;0.08;0.08;;;;;;;11.54;70.95;100582.06;7352007;19;20464;-66
2022/04/13 06:45:11;;;;;;;0.00;0.00;;;;;;;11.56;70.97;100587.28;7358486;19;20046;-65
2022/04/13 06:47:40;;;;;;;0.00;0.00;;;;;;;11.45;70.66;100574.47;7358882;19;21750;-65
2022/04/13 06:50:08;;;;;;;0.00;0.00;;;;;;;11.53;71.02;100596.06;7360601;19;20010;-64
2022/04/13 06:52:35;;;;;;;0.03;0.03;;;;;;;11.52;70.47;100593.50;7348642;19;20644;-66
2022/04/13 06:55:01;;;;;;;0.00;0.00;;;;;;;11.42;70.84;100585.03;7356453;19;20415;-66
2022/04/13 06:57:26;;;;;;;0.10;0.10;;;;;;;11.48;70.78;100603.16;7355296;19;20742;-65
2022/04/13 06:59:52;;;;;;;0.00;0.00;;;;;;;11.47;70.47;100613.69;7357755;19;20010;-64
2022/04/13 07:02:17;;;;;;;0.00;0.00;;;;;;;11.45;69.89;100621.53;7355686;19;20017;-65
2022/04/13 07:04:42;;;;;;;0.00;0.00;;;;;;;11.44;70.85;100614.59;7356819;19;20015;-65
2022/04/13 07:07:08;;;;;;;0.10;0.10;;;;;;;11.44;71.37;100615.47;7352967;19;20653;-67
2022/04/13 07:09:34;;;;;;;0.00;0.00;;;;;;;11.38;71.39;100604.31;7353054;19;20015;-64
2022/04/13 07:11:59;;;;;;;0.00;0.00;;;;;;;11.52;71.64;100622.25;7351586;19;20022;-65
2022/04/13 07:14:25;;;;;;;0.00;0.00;;;;;;;11.58;71.65;100622.94;7355535;19;20021;-65
2022/04/13 07:16:50;;;;;;;0.10;0.10;;;;;;;11.67;71.43;100627.06;7351898;19;20796;-66
2022/04/13 07:19:16;;;;;;;0.00;0.00;;;;;;;11.74;71.53;100623.34;7352885;19;20775;-66
2022/04/13 07:21:41;;;;;;;0.10;0.10;;;;;;;11.84;71.39;100639.66;7355585;19;20010;-64
2022/04/13 07:24:07;;;;;;;0.00;0.00;;;;;;;11.79;71.21;100631.91;7348016;19;20456;-64
2022/04/13 07:26:32;;;;;;;0.00;0.00;;;;;;;11.95;71.40;100638.44;7356706;19;20018;-64
2022/04/13 07:29:00;;;;;;;0.10;0.10;;;;;;;12.05;71.31;100648.66;7346224;19;20022;-65
2022/04/13 07:31:26;;;;;;;0.00;0.00;;;;;;;12.08;71.22;100643.34;7349953;19;20039;-64
2022/04/13 07:33:51;;;;;;;0.00;0.00;;;;;;;12.15;70.95;100656.19;7356084;19;20847;-66
2022/04/13 07:36:17;;;;;;;0.00;0.00;;;;;;;12.20;71.08;100664.75;7351858;19;20047;-64
2022/04/13 07:38:42;;;;;;;0.00;0.00;;;;;;;12.27;71.02;100660.22;7350179;19;20014;-65
2022/04/13 07:41:08;;;;;;;0.00;0.00;;;;;;;12.34;70.53;100671.34;7356428;19;20026;-64
2022/04/13 07:43:33;;;;;;;0.00;0.00;;;;;;;12.38;70.79;100668.59;7357225;19;20007;-67
2022/04/13 07:45:58;;;;;;;0.00;0.00;;;;;;;12.46;70.78;100676.19;7348741;19;20026;-65
2022/04/13 07:48:24;;;;;;;0.00;0.00;;;;;;;12.51;70.55;100690.00;7344200;19;20677;-65
2022/04/13 07:50:49;;;;;;;0.00;0.00;;;;;;;12.52;70.74;100678.66;7340758;19;20014;-65
2022/04/13 07:53:15;;;;;;;0.00;0.00;;;;;;;12.55;70.85;100670.69;7350012;19;20010;-65
2022/04/13 07:55:41;;;;;;;0.03;0.03;;;;;;;12.66;70.69;100686.91;7357991;19;20011;-65
2022/04/13 07:58:06;;;;;;;0.00;0.00;;;;;;;12.70;70.81;100691.16;7359466;19;20710;-64
2022/04/13 08:00:32;;;;;;;0.10;0.10;;;;;;;12.74;70.60;100697.16;7362800;19;20461;-66
2022/04/13 08:02:58;;;;;;;0.00;0.00;;;;;;;12.50;70.45;100650.78;7358348;19;20030;-64
2022/04/13 08:05:26;;;;;;;0.00;0.00;;;;;;;12.76;70.24;100689.25;7358014;19;20018;-65
2022/04/13 08:07:52;;;;;;;0.00;0.00;;;;;;;12.89;70.21;100714.16;7355698;19;20006;-65
2022/04/13 08:10:17;;;;;;;0.00;0.00;;;;;;;12.94;70.10;100704.41;7363242;19;20010;-64
2022/04/13 08:12:46;;;;;;;0.10;0.10;;;;;;;12.99;69.80;100715.59;7354795;19;20012;-66
2022/04/13 08:15:12;;;;;;;0.05;0.05;;;;;;;13.04;69.79;100711.06;7363318;19;20988;-66
2022/04/13 08:17:39;;;;;;;0.00;0.00;;;;;;;13.08;69.82;100717.91;7353688;19;19998;-64
2022/04/13 08:20:06;;;;;;;0.10;0.10;;;;;;;13.13;69.97;100710.75;7353654;19;20459;-66
2022/04/13 08:22:32;;;;;;;;;;;;;;;13.21;68.57;100719.25;7361044;19;20010;-65
2022/04/13 08:24:57;;;;;;;0.00;0.00;;;;;;;13.17;69.57;100717.59;7360678;19;21043;-64
2022/04/13 08:27:23;;;;;;;0.00;0.00;;;;;;;13.19;68.98;100731.53;7361431;19;20026;-67
2022/04/13 08:29:48;;;;;;;0.10;0.10;;;;;;;13.17;69.33;100733.31;7357135;19;20022;-66
2022/04/13 08:32:18;;;;;;;0.00;0.00;;;;;;;13.20;69.43;100737.63;7349734;19;20009;-66
2022/04/13 08:34:44;;;;;;;0.05;0.05;;;;;;;13.16;69.91;100736.84;7353170;19;20425;-65
2022/04/13 08:37:10;;;;;;;0.00;0.00;;;;;;;13.19;69.83;100735.91;7362696;19;20042;-63
2022/04/13 08:39:36;;;;;;;0.10;0.10;;;;;;;13.20;70.03;100748.97;7349451;19;20007;-64
2022/04/13 08:42:27;;;;;;;0.00;0.00;;;;;;;13.30;68.95;100744.31;7363965;19;20118;-66
2022/04/13 08:44:53;;;;;;;0.05;0.05;;;;;;;13.29;69.46;100747.00;7350775;19;20011;-66
2022/04/13 08:47:23;;;;;;;0.10;0.10;;;;;;;13.33;69.85;100753.81;7360580;19;25414;-65
2022/04/13 08:49:52;;;;;;;0.00;0.00;;;;;;;13.30;69.56;100738.22;7361433;19;20011;-65
2022/04/13 08:52:39;;;;;;;0.00;0.00;;;;;;;13.49;69.64;100755.06;7358951;19;20024;-66
2022/04/13 08:55:07;;;;;;;0.00;0.00;;;;;;;13.58;69.23;100759.97;7356493;19;20509;-65
2022/04/13 08:57:38;;;;;;;0.00;0.00;;;;;;;13.69;69.12;100770.97;7352103;19;20017;-65
2022/04/13 09:00:06;;;;;;;0.08;0.08;;;;;;;13.79;69.22;100784.63;7358759;19;20014;-64
2022/04/13 09:02:50;;;;;;;0.00;0.00;;;;;;;13.96;69.73;100786.66;7355610;19;20011;-66
2022/04/13 09:05:18;;;;;;;0.00;0.00;;;;;;;14.18;70.08;100777.09;7354773;19;20091;-65
2022/04/13 09:07:46;;;;;;;0.00;0.00;;;;;;;14.49;69.43;100786.50;7360708;19;20006;-67
2022/04/13 09:10:23;;;;;;;0.00;0.00;;;;;;;14.84;69.11;100786.94;7360686;19;20579;-66
2022/04/13 09:12:51;;;;;;;0.00;0.00;;;;;;;15.14;68.37;100784.88;7353671;19;20014;-67
2022/04/13 09:15:17;;;;;;;0.00;0.00;;;;;;;15.39;68.26;100785.56;7361538;19;20015;-66
2022/04/13 09:17:43;;;;;;;0.00;0.00;;;;;;;15.68;67.30;100781.75;7352525;19;20034;-66
2022/04/13 09:20:09;;;;;;;0.00;0.00;;;;;;;16.08;67.14;100787.94;7361208;19;20038;-66
2022/04/13 09:22:36;;;;;;;0.03;0.03;;;;;;;16.44;66.30;100788.06;7356113;19;20007;-67
2022/04/13 09:25:04;;;;;;;0.03;0.03;;;;;;;16.69;65.74;100782.53;7361105;19;20042;-66
2022/04/13 09:27:30;;;;;;;;;;;;;;;17.16;67.37;100792.63;7347537;19;20022;-65
2022/04/13 09:29:55;;;;;;;0.00;0.00;;;;;;;17.20;64.42;100785.41;7347583;19;19922;-65
2022/04/13 09:32:21;;;;;;;0.10;0.10;;;;;;;17.25;62.87;100789.53;7361009;19;20014;-65
2022/04/13 09:34:47;;;;;;;0.10;0.10;;;;;;;17.23;62.79;100793.16;7348189;19;20022;-65
2022/04/13 09:37:13;;;;;;;0.03;0.03;;;;;;;17.18;62.43;100785.47;7360504;19;20026;-66
2022/04/13 09:39:39;;;;;;;0.00;0.00;;;;;;;17.15;62.61;100793.56;7356859;19;20378;-65
2022/04/13 09:42:04;;;;;;;0.00;0.00;;;;;;;17.08;63.28;100784.22;7352428;19;20014;-64
2022/04/13 09:44:32;;;;;;;0.00;0.00;;;;;;;17.08;62.79;100792.13;7358860;19;20014;-66
2022/04/13 09:47:08;;;;;;;0.05;0.05;;;;;;;17.12;63.25;100796.31;7362012;19;20014;-66
2022/04/13 09:49:34;;;;;;;0.00;0.00;;;;;;;17.01;62.65;100806.56;7352719;19;20010;-64
2022/04/13 09:52:00;;;;;;;0.00;0.00;;;;;;;16.98;62.36;100798.78;7360194;19;20010;-67
2022/04/13 09:54:26;;;;;;;0.00;0.00;;;;;;;16.96;62.25;100795.38;7358158;19;20010;-66
2022/04/13 09:56:53;;;;;;;0.10;0.10;;;;;;;16.91;62.41;100786.81;7356690;19;20030;-63
2022/04/13 09:59:29;;;;;;;0.00;0.00;;;;;;;16.87;62.92;100780.81;7362026;19;20123;-67
2022/04/13 10:01:56;;;;;;;0.08;0.08;;;;;;;16.84;62.83;100792.38;7358887;19;20044;-67
2022/04/13 10:04:29;;;;;;;0.10;0.10;;;;;;;16.88;62.72;100802.78;7352211;19;20550;-64
2022/04/13 10:06:54;;;;;;;0.00;0.00;;;;;;;16.83;62.42;100795.94;7363838;19;20403;-65
2022/04/13 10:09:22;;;;;;;0.00;0.00;;;;;;;16.89;62.87;100805.34;7361484;19;20015;-66
2022/04/13 10:11:59;;;;;;;0.00;0.00;;;;;;;16.98;63.59;100793.50;7359478;19;20097;-66
2022/04/13 10:14:24;;;;;;;0.10;0.10;;;;;;;17.11;62.92;100794.63;7351156;19;20018;-65
2022/04/13 10:16:52;;;;;;;0.10;0.10;;;;;;;17.37;63.02;100796.84;7360655;19;22721;-65
2022/04/13 10:19:20;;;;;;;0.00;0.00;;;;;;;17.52;62.94;100767.97;7352924;19;20021;-66
2022/04/13 10:21:50;;;;;;;0.10;0.10;;;;;;;17.89;61.47;100788.97;7357904;19;20041;-66
2022/04/13 10:24:21;;;;;;;0.10;0.10;;;;;;;18.26;61.67;100791.47;7359975;19;20477;-66
2022/04/13 10:27:07;;;;;;;0.10;0.10;;;;;;;18.44;62.12;100761.38;7353302;19;21371;-66
2022/04/13 10:29:34;;;;;;;0.00;0.00;;;;;;;18.89;60.29;100792.41;7353558;19;20783;-65
2022/04/13 10:32:14;;;;;;;0.00;0.00;;;;;;;19.28;61.90;100788.47;7355128;19;20022;-65
2022/04/13 10:34:41;;;;;;;0.10;0.10;;;;;;;19.73;58.31;100799.16;7351910;19;20017;-66
2022/04/13 10:37:08;;;;;;;0.10;0.10;;;;;;;20.16;57.28;100808.00;7354860;19;20343;-66
2022/04/13 10:39:34;;;;;;;0.00;0.00;;;;;;;20.54;57.35;100812.81;7356320;19;20012;-66
2022/04/13 10:42:02;;;;;;;0.00;0.00;;;;;;;20.97;56.92;100810.91;7349662;19;20047;-67
2022/04/13 10:44:36;;;;;;;0.10;0.10;;;;;;;21.36;54.96;100814.63;7347778;19;20062;-65
2022/04/13 10:47:06;;;;;;;0.00;0.00;;;;;;;21.70;54.41;100802.63;7357032;19;20026;-66
2022/04/13 10:49:45;;;;;;;0.10;0.10;;;;;;;22.22;55.26;100817.69;7361681;19;20026;-67
2022/04/13 10:52:23;;;;;;;0.10;0.10;;;;;;;22.48;52.90;100810.53;7356837;19;20010;-64
2022/04/13 10:54:53;;;;;;;0.10;0.10;;;;;;;22.71;50.93;100819.56;7362182;19;20031;-65
2022/04/13 10:57:21;;;;;;;0.08;0.08;;;;;;;22.93;51.06;100811.72;7349057;19;20710;-66
2022/04/13 11:00:00;;;;;;;0.10;0.10;;;;;;;23.13;52.94;100812.09;7359743;19;20010;-66
2022/04/13 11:02:57;;;;;;;0.00;0.00;;;;;;;23.28;53.13;100833.13;7356663;19;20990;-66
2022/04/13 11:05:27;;;;;;;0.10;0.10;;;;;;;23.14;48.95;100827.13;7251500;19;2004587;-66
2022/04/13 11:08:09;;;;;;;0.10;0.10;;;;;;;23.18;50.43;100831.25;7353631;19;20010;-65
2022/04/13 11:10:36;;;;;;;0.10;0.10;;;;;;;22.98;47.39;100838.88;7360940;19;20011;-66
2022/04/13 11:13:01;;;;;;;0.10;0.10;;;;;;;22.78;48.83;100824.31;7351665;19;20018;-64
2022/04/13 11:15:40;;;;;;;0.00;0.00;;;;;;;22.77;50.58;100830.59;7351914;19;20798;-67
2022/04/13 11:18:11;;;;;;;0.10;0.10;;;;;;;22.79;49.74;100827.81;7354938;19;20011;-66
2022/04/13 11:20:37;;;;;;;0.03;0.03;;;;;;;22.79;49.64;100811.84;7358575;19;20028;-66
2022/04/13 11:23:13;;;;;;;0.10;0.10;;;;;;;23.33;51.19;100827.47;7359395;19;20923;-66
2022/04/13 11:25:51;;;;;;;0.10;0.10;;;;;;;23.83;51.31;100835.34;7351110;19;20015;-67